Time;durP1;ratioP1;P1;durP2;ratioP2;P2;SDS_P1;SDS_P2;PMS_P1;PMS_P2;Temp;Humidity;BMP_temperature;BMP_pressure;BME280_temperature;BME280_humidity;BME280_pressure;Samples;Min_cycle;Max_cycle;Signal;HPM_P1;HPM_P2
2023/09/07 00:00:34;;;;;;;38.67;36.63;;;;;;;;;;5033987;28;20034;-67
2023/09/07 00:02:59;;;;;;;41.65;39.47;;;;;;;;;;5039310;28;20583;-64
2023/09/07 00:05:25;;;;;;;40.67;38.55;;;;;;;;;;5036968;28;20026;-63
2023/09/07 00:07:50;;;;;;;40.22;37.80;;;;;;;;;;5054276;28;20033;-64
2023/09/07 00:10:17;;;;;;;38.33;36.35;;;;;;;;;;5023874;28;20530;-64
2023/09/07 00:12:43;;;;;;;39.25;37.17;;;;;;;;;;5038839;28;20086;-64
2023/09/07 00:15:10;;;;;;;37.88;35.90;;;;;;;;;;5035897;28;20042;-67
2023/09/07 00:17:36;;;;;;;38.72;36.72;;;;;;;;;;5043883;28;20116;-66
2023/09/07 00:20:10;;;;;;;37.83;35.88;;;;;;;;;;5040922;28;20472;-65
2023/09/07 00:22:35;;;;;;;40.38;38.13;;;;;;;;;;5025938;28;20017;-64
2023/09/07 00:25:01;;;;;;;40.58;38.38;;;;;;;;;;5041698;28;20032;-64
2023/09/07 00:27:26;;;;;;;41.75;39.60;;;;;;;;;;5043469;28;20029;-68
2023/09/07 00:29:52;;;;;;;37.08;35.17;;;;;;;;;;5042874;28;20029;-68
2023/09/07 00:32:17;;;;;;;41.22;39.05;;;;;;;;;;5041376;28;20519;-64
2023/09/07 00:34:42;;;;;;;40.40;38.30;;;;;;;;;;5040923;28;20487;-64
2023/09/07 00:37:07;;;;;;;40.67;38.55;;;;;;;;;;5039526;28;20041;-68
2023/09/07 00:39:33;;;;;;;39.58;37.53;;;;;;;;;;5041267;28;20067;-67
2023/09/07 00:41:58;;;;;;;39.00;36.95;;;;;;;;;;5042813;28;20048;-64
2023/09/07 00:44:23;;;;;;;39.10;37.10;;;;;;;;;;5040538;28;20021;-64
2023/09/07 00:46:49;;;;;;;42.25;40.05;;;;;;;;;;5041442;28;20476;-67
2023/09/07 00:49:14;;;;;;;38.33;36.33;;;;;;;;;;5045042;28;20063;-64
2023/09/07 00:51:40;;;;;;;38.05;36.08;;;;;;;;;;5027211;28;20471;-68
2023/09/07 00:54:06;;;;;;;39.45;37.40;;;;;;;;;;5024207;28;20068;-65
2023/09/07 00:56:31;;;;;;;37.88;35.90;;;;;;;;;;5023392;28;20114;-64
2023/09/07 00:58:59;;;;;;;38.42;36.42;;;;;;;;;;5038018;28;20033;-68
2023/09/07 01:01:26;;;;;;;38.33;36.28;;;;;;;;;;5043151;28;20033;-64
2023/09/07 01:03:51;;;;;;;34.80;33.00;;;;;;;;;;5042649;28;20495;-67
2023/09/07 01:06:35;;;;;;;37.67;35.67;;;;;;;;;;5041844;28;20175;-68
2023/09/07 01:09:07;;;;;;;37.80;35.72;;;;;;;;;;5041779;28;20360;-67
2023/09/07 01:11:37;;;;;;;36.28;34.35;;;;;;;;;;5040822;28;20116;-64
2023/09/07 01:14:03;;;;;;;38.70;36.70;;;;;;;;;;5042441;28;20021;-64
2023/09/07 01:16:30;;;;;;;35.20;33.10;;;;;;;;;;5009945;28;20041;-68
2023/09/07 01:18:56;;;;;;;34.58;32.67;;;;;;;;;;5042907;28;20025;-67
2023/09/07 01:21:22;;;;;;;33.88;32.08;;;;;;;;;;5043494;28;20032;-64
2023/09/07 01:23:48;;;;;;;37.80;35.78;;;;;;;;;;5040309;28;20423;-63
2023/09/07 01:26:13;;;;;;;33.30;31.50;;;;;;;;;;5044632;28;20025;-64
2023/09/07 01:28:39;;;;;;;32.85;31.15;;;;;;;;;;5038042;28;20044;-68
2023/09/07 01:31:05;;;;;;;32.10;30.40;;;;;;;;;;5041664;28;20029;-68
2023/09/07 01:33:31;;;;;;;31.55;29.85;;;;;;;;;;5038507;28;20029;-68
2023/09/07 01:35:57;;;;;;;32.08;30.38;;;;;;;;;;5042164;28;20490;-64
2023/09/07 01:38:23;;;;;;;30.38;28.77;;;;;;;;;;5040899;28;20044;-64
2023/09/07 01:40:49;;;;;;;31.83;30.13;;;;;;;;;;5039178;28;20041;-64
2023/09/07 01:43:14;;;;;;;30.10;28.35;;;;;;;;;;5039027;28;20033;-64
2023/09/07 01:45:40;;;;;;;30.08;28.48;;;;;;;;;;5037926;28;20484;-66
2023/09/07 01:48:10;;;;;;;28.83;27.33;;;;;;;;;;5039740;28;20087;-64
2023/09/07 01:50:36;;;;;;;29.35;27.75;;;;;;;;;;5039337;28;20048;-63
2023/09/07 01:53:03;;;;;;;28.38;26.85;;;;;;;;;;5027102;28;20040;-64
2023/09/07 01:55:28;;;;;;;26.15;24.75;;;;;;;;;;5039834;28;20060;-67
2023/09/07 01:57:53;;;;;;;25.90;24.52;;;;;;;;;;5040141;28;20052;-63
2023/09/07 02:00:19;;;;;;;27.60;26.10;;;;;;;;;;5035674;28;20040;-67
2023/09/07 02:02:44;;;;;;;26.15;24.73;;;;;;;;;;5056343;28;20045;-64
2023/09/07 02:05:10;;;;;;;24.63;23.33;;;;;;;;;;5039739;28;20033;-67
2023/09/07 02:07:35;;;;;;;29.00;27.40;;;;;;;;;;5039950;28;20028;-67
2023/09/07 02:10:03;;;;;;;26.15;24.45;;;;;;;;;;5023716;28;20064;-67
2023/09/07 02:12:28;;;;;;;25.98;24.58;;;;;;;;;;5037044;28;20120;-68
2023/09/07 02:14:54;;;;;;;25.35;23.95;;;;;;;;;;5037804;28;20435;-67
2023/09/07 02:17:20;;;;;;;24.35;23.02;;;;;;;;;;5044177;28;20033;-67
2023/09/07 02:19:46;;;;;;;23.23;21.95;;;;;;;;;;5040226;28;20099;-63
2023/09/07 02:22:11;;;;;;;23.65;22.35;;;;;;;;;;5039158;28;20064;-68
2023/09/07 02:24:37;;;;;;;24.83;22.65;;;;;;;;;;5042743;28;20055;-67
2023/09/07 02:27:02;;;;;;;23.58;22.27;;;;;;;;;;5039557;28;20035;-67
2023/09/07 02:29:28;;;;;;;25.75;24.30;;;;;;;;;;5039761;28;20033;-67
2023/09/07 02:31:53;;;;;;;21.55;20.35;;;;;;;;;;5038968;28;21123;-67
2023/09/07 02:34:18;;;;;;;21.60;20.38;;;;;;;;;;5036320;28;20033;-67
2023/09/07 02:36:44;;;;;;;20.95;19.75;;;;;;;;;;5039142;28;20030;-63
2023/09/07 02:39:11;;;;;;;22.55;21.35;;;;;;;;;;5027159;28;20025;-63
2023/09/07 02:41:36;;;;;;;21.63;20.35;;;;;;;;;;5040358;28;20486;-63
2023/09/07 02:44:02;;;;;;;22.02;20.83;;;;;;;;;;5024144;28;20041;-67
2023/09/07 02:46:28;;;;;;;20.52;19.38;;;;;;;;;;5037364;28;20754;-66
2023/09/07 02:48:56;;;;;;;23.38;22.08;;;;;;;;;;5026374;28;20041;-63
2023/09/07 02:51:22;;;;;;;22.80;21.55;;;;;;;;;;5040185;28;20025;-63
2023/09/07 02:53:48;;;;;;;23.92;22.60;;;;;;;;;;5040613;28;20408;-63
2023/09/07 02:56:13;;;;;;;23.67;22.30;;;;;;;;;;5040264;28;20103;-64
2023/09/07 02:58:39;;;;;;;23.80;22.50;;;;;;;;;;5034925;28;20434;-63
2023/09/07 03:01:11;;;;;;;23.48;22.17;;;;;;;;;;5040822;28;20032;-67
2023/09/07 03:03:37;;;;;;;22.90;21.67;;;;;;;;;;5035449;28;20044;-67
2023/09/07 03:06:10;;;;;;;23.13;21.88;;;;;;;;;;5036464;28;20040;-67
2023/09/07 03:08:36;;;;;;;25.02;23.15;;;;;;;;;;5034726;28;20028;-67
2023/09/07 03:11:05;;;;;;;23.00;21.73;;;;;;;;;;5048499;28;20033;-67
2023/09/07 03:13:30;;;;;;;24.50;23.08;;;;;;;;;;5037116;28;20047;-63
2023/09/07 03:15:56;;;;;;;26.40;25.00;;;;;;;;;;5039925;28;20036;-66
2023/09/07 03:18:21;;;;;;;25.38;24.00;;;;;;;;;;5035721;28;20601;-63
2023/09/07 03:20:47;;;;;;;28.08;26.52;;;;;;;;;;5034927;28;20505;-66
2023/09/07 03:23:12;;;;;;;28.23;26.73;;;;;;;;;;5034143;28;20626;-67
2023/09/07 03:25:38;;;;;;;29.00;27.45;;;;;;;;;;5022760;28;20039;-67
2023/09/07 03:28:03;;;;;;;29.58;28.02;;;;;;;;;;5034398;28;20127;-66
2023/09/07 03:30:29;;;;;;;30.52;28.83;;;;;;;;;;5035856;28;20044;-63
2023/09/07 03:32:54;;;;;;;29.15;27.52;;;;;;;;;;5020358;28;20033;-63
2023/09/07 03:35:20;;;;;;;28.27;26.75;;;;;;;;;;5038638;28;20621;-63
2023/09/07 03:37:45;;;;;;;31.98;27.40;;;;;;;;;;5033527;28;20621;-66
2023/09/07 03:40:10;;;;;;;31.65;30.00;;;;;;;;;;5032342;28;20036;-67
2023/09/07 03:42:36;;;;;;;34.58;32.78;;;;;;;;;;5033822;28;20187;-66
2023/09/07 03:45:03;;;;;;;32.22;30.45;;;;;;;;;;5032997;28;20068;-66
2023/09/07 03:47:29;;;;;;;33.03;31.20;;;;;;;;;;5031118;28;20030;-63
2023/09/07 03:49:56;;;;;;;33.42;31.67;;;;;;;;;;5036993;28;20431;-63
2023/09/07 03:52:24;;;;;;;32.28;30.60;;;;;;;;;;5034777;28;20132;-63
2023/09/07 03:54:50;;;;;;;32.92;31.20;;;;;;;;;;5036525;28;20029;-63
2023/09/07 03:57:16;;;;;;;33.88;32.10;;;;;;;;;;5036412;28;20037;-62
2023/09/07 03:59:41;;;;;;;34.47;32.70;;;;;;;;;;5035071;28;20147;-67
2023/09/07 04:02:06;;;;;;;35.95;34.08;;;;;;;;;;5018878;28;20055;-66
2023/09/07 04:04:33;;;;;;;34.08;32.28;;;;;;;;;;5038578;28;20037;-66
2023/09/07 04:06:58;;;;;;;33.95;32.20;;;;;;;;;;5038369;28;20022;-66
2023/09/07 04:09:23;;;;;;;36.42;34.53;;;;;;;;;;5037047;28;20039;-66
2023/09/07 04:11:49;;;;;;;39.78;37.63;;;;;;;;;;5036521;28;20163;-63
2023/09/07 04:14:14;;;;;;;42.97;40.75;;;;;;;;;;5035470;28;20025;-67
2023/09/07 04:16:39;;;;;;;46.42;43.88;;;;;;;;;;5041135;28;20051;-63
2023/09/07 04:19:05;;;;;;;48.05;45.60;;;;;;;;;;5053143;28;20377;-66
2023/09/07 04:21:30;;;;;;;44.45;42.05;;;;;;;;;;5039367;28;20028;-63
2023/09/07 04:23:55;;;;;;;46.65;44.22;;;;;;;;;;5040977;28;20111;-67
2023/09/07 04:26:21;;;;;;;45.30;43.00;;;;;;;;;;5038016;28;20414;-66
2023/09/07 04:28:46;;;;;;;51.17;48.55;;;;;;;;;;5022556;28;20611;-66
2023/09/07 04:31:11;;;;;;;41.95;39.80;;;;;;;;;;5030807;28;20736;-62
2023/09/07 04:33:37;;;;;;;38.80;36.80;;;;;;;;;;5038303;28;20523;-62
2023/09/07 04:36:08;;;;;;;36.95;35.00;;;;;;;;;;5036549;28;20116;-63
2023/09/07 04:38:34;;;;;;;32.78;31.08;;;;;;;;;;5037735;28;20048;-63
2023/09/07 04:41:09;;;;;;;34.05;32.22;;;;;;;;;;5035505;28;20632;-62
2023/09/07 04:43:35;;;;;;;30.10;28.45;;;;;;;;;;5037099;28;20044;-65
2023/09/07 04:46:00;;;;;;;28.48;26.95;;;;;;;;;;5037303;28;20041;-66
2023/09/07 04:48:26;;;;;;;29.40;27.83;;;;;;;;;;5026272;28;20082;-62
2023/09/07 04:51:03;;;;;;;29.83;28.13;;;;;;;;;;5035585;28;20430;-62
2023/09/07 04:53:29;;;;;;;27.08;25.63;;;;;;;;;;5037365;28;20106;-66
2023/09/07 04:55:54;;;;;;;23.67;22.33;;;;;;;;;;5038134;28;20106;-62
2023/09/07 04:58:20;;;;;;;23.25;21.95;;;;;;;;;;5033828;28;20467;-62
2023/09/07 05:00:45;;;;;;;21.25;20.08;;;;;;;;;;5039162;28;20427;-62
2023/09/07 05:03:12;;;;;;;19.65;18.52;;;;;;;;;;5036875;28;20021;-62
2023/09/07 05:05:38;;;;;;;21.27;20.13;;;;;;;;;;5038067;28;20094;-62
2023/09/07 05:08:04;;;;;;;22.30;21.05;;;;;;;;;;5037383;28;20110;-62
2023/09/07 05:10:33;;;;;;;21.23;20.08;;;;;;;;;;5040542;28;20047;-62
2023/09/07 05:12:58;;;;;;;20.00;18.90;;;;;;;;;;5038561;28;20057;-66
2023/09/07 05:15:24;;;;;;;20.27;18.98;;;;;;;;;;5041730;28;20060;-66
2023/09/07 05:17:49;;;;;;;22.10;20.85;;;;;;;;;;5023964;28;20574;-67
2023/09/07 05:20:15;;;;;;;22.63;21.33;;;;;;;;;;5024795;28;20094;-63
2023/09/07 05:22:40;;;;;;;20.00;18.90;;;;;;;;;;5043396;28;20102;-63
2023/09/07 05:25:06;;;;;;;21.10;19.95;;;;;;;;;;5036408;28;20029;-67
2023/09/07 05:27:33;;;;;;;21.50;20.33;;;;;;;;;;5040987;28;20624;-68
2023/09/07 05:29:58;;;;;;;22.25;21.02;;;;;;;;;;5037538;28;20472;-62
2023/09/07 05:32:24;;;;;;;23.83;22.48;;;;;;;;;;5039728;28;20128;-62
2023/09/07 05:34:49;;;;;;;22.35;21.13;;;;;;;;;;5039849;28;20124;-62
2023/09/07 05:37:14;;;;;;;23.60;22.30;;;;;;;;;;5038983;28;20136;-62
2023/09/07 05:39:40;;;;;;;20.60;19.38;;;;;;;;;;5044488;28;20035;-62
2023/09/07 05:42:05;;;;;;;21.25;20.05;;;;;;;;;;5036303;28;20072;-66
2023/09/07 05:44:31;;;;;;;21.20;19.80;;;;;;;;;;5036946;28;20034;-65
2023/09/07 05:46:58;;;;;;;19.77;18.65;;;;;;;;;;5039612;28;20063;-62
2023/09/07 05:49:23;;;;;;;19.27;18.23;;;;;;;;;;5038226;28;20044;-66
2023/09/07 05:51:49;;;;;;;19.20;18.10;;;;;;;;;;5039040;28;20041;-66
2023/09/07 05:54:14;;;;;;;18.35;17.25;;;;;;;;;;5034805;28;20047;-63
2023/09/07 05:56:39;;;;;;;17.58;16.60;;;;;;;;;;5038318;28;20059;-62
2023/09/07 05:59:05;;;;;;;18.90;17.85;;;;;;;;;;5039240;28;20025;-62
2023/09/07 06:01:30;;;;;;;19.00;17.90;;;;;;;;;;5024407;28;20032;-62
2023/09/07 06:03:55;;;;;;;17.23;16.25;;;;;;;;;;5038804;28;20733;-67
2023/09/07 06:06:21;;;;;;;18.17;17.17;;;;;;;;;;5036960;28;20116;-67
2023/09/07 06:08:46;;;;;;;16.60;15.60;;;;;;;;;;5037061;28;20376;-67
2023/09/07 06:11:11;;;;;;;18.73;17.63;;;;;;;;;;5038226;28;20415;-62
2023/09/07 06:13:37;;;;;;;17.38;16.40;;;;;;;;;;5036459;28;20379;-62
2023/09/07 06:16:02;;;;;;;17.65;16.65;;;;;;;;;;5037346;28;20021;-62
2023/09/07 06:18:28;;;;;;;18.80;17.70;;;;;;;;;;5023779;28;20561;-66
2023/09/07 06:20:53;;;;;;;20.02;18.90;;;;;;;;;;5038028;28;20060;-63
2023/09/07 06:23:18;;;;;;;17.88;16.85;;;;;;;;;;5033240;28;20042;-66
2023/09/07 06:25:44;;;;;;;18.70;17.67;;;;;;;;;;5039181;28;20032;-63
2023/09/07 06:28:09;;;;;;;17.50;16.50;;;;;;;;;;5050734;28;20029;-62
2023/09/07 06:30:34;;;;;;;19.70;18.60;;;;;;;;;;5039428;28;20033;-63
2023/09/07 06:33:00;;;;;;;20.63;19.42;;;;;;;;;;5039449;28;20044;-62
2023/09/07 06:35:26;;;;;;;22.60;21.35;;;;;;;;;;5038713;28;20025;-67
2023/09/07 06:37:51;;;;;;;21.50;20.30;;;;;;;;;;5038308;28;20045;-67
2023/09/07 06:40:17;;;;;;;25.67;24.27;;;;;;;;;;5036447;28;20060;-67
2023/09/07 06:42:43;;;;;;;26.90;25.40;;;;;;;;;;5035936;28;20040;-63
2023/09/07 06:45:09;;;;;;;27.95;26.48;;;;;;;;;;5053854;28;20281;-63
2023/09/07 06:47:35;;;;;;;33.05;31.35;;;;;;;;;;5037451;28;20020;-63
2023/09/07 06:50:00;;;;;;;33.65;31.90;;;;;;;;;;5037779;28;20045;-63
2023/09/07 06:52:25;;;;;;;30.08;28.20;;;;;;;;;;5040855;28;20476;-63
2023/09/07 06:54:53;;;;;;;32.50;30.80;;;;;;;;;;5037680;28;20021;-63
2023/09/07 06:57:18;;;;;;;26.08;24.67;;;;;;;;;;5041210;28;20368;-67
2023/09/07 06:59:44;;;;;;;29.45;27.85;;;;;;;;;;5034124;28;20029;-62
2023/09/07 07:02:09;;;;;;;28.52;27.02;;;;;;;;;;5037881;28;20025;-63
2023/09/07 07:04:35;;;;;;;16.85;15.85;;;;;;;;;;5040886;28;20382;-67
2023/09/07 07:07:04;;;;;;;17.23;16.23;;;;;;;;;;5039878;28;20726;-63
2023/09/07 07:09:33;;;;;;;15.52;14.63;;;;;;;;;;5035206;28;20470;-67
2023/09/07 07:12:02;;;;;;;16.58;15.57;;;;;;;;;;5035700;28;20793;-63
2023/09/07 07:14:28;;;;;;;16.45;15.55;;;;;;;;;;5039957;28;20031;-63
2023/09/07 07:16:53;;;;;;;19.48;18.38;;;;;;;;;;5036834;28;20438;-63
2023/09/07 07:19:18;;;;;;;20.38;19.25;;;;;;;;;;5022265;28;20024;-67
2023/09/07 07:21:44;;;;;;;21.75;20.52;;;;;;;;;;5035221;28;20048;-64
2023/09/07 07:24:10;;;;;;;23.38;22.15;;;;;;;;;;5037294;28;20549;-67
2023/09/07 07:26:35;;;;;;;23.17;21.88;;;;;;;;;;5035298;28;20033;-68
2023/09/07 07:29:02;;;;;;;28.00;26.52;;;;;;;;;;5036643;28;20680;-63
2023/09/07 07:31:29;;;;;;;32.05;30.38;;;;;;;;;;5036011;28;20033;-67
2023/09/07 07:33:55;;;;;;;37.65;35.63;;;;;;;;;;5036475;28;20048;-63
2023/09/07 07:36:20;;;;;;;43.75;41.47;;;;;;;;;;5036146;28;20025;-69
2023/09/07 07:38:46;;;;;;;42.63;40.42;;;;;;;;;;5038270;28;20064;-69
2023/09/07 07:41:11;;;;;;;49.35;46.80;;;;;;;;;;5035950;28;20033;-63
2023/09/07 07:43:37;;;;;;;56.13;53.28;;;;;;;;;;5033136;28;20128;-63
2023/09/07 07:46:02;;;;;;;56.55;53.65;;;;;;;;;;5034760;28;20022;-64
2023/09/07 07:48:29;;;;;;;57.92;55.00;;;;;;;;;;5037949;28;20028;-69
2023/09/07 07:50:54;;;;;;;75.47;71.70;;;;;;;;;;5021996;28;20468;-63
2023/09/07 07:53:20;;;;;;;68.13;64.72;;;;;;;;;;5033307;28;20048;-63
2023/09/07 07:55:46;;;;;;;70.28;66.75;;;;;;;;;;5037425;28;20036;-63
2023/09/07 07:58:11;;;;;;;71.18;67.60;;;;;;;;;;5035917;28;20742;-63
2023/09/07 08:00:38;;;;;;;84.85;80.65;;;;;;;;;;5035754;28;20037;-68
2023/09/07 08:03:05;;;;;;;87.45;83.18;;;;;;;;;;5037570;28;20040;-69
2023/09/07 08:05:34;;;;;;;87.05;82.78;;;;;;;;;;5037752;28;20112;-68
2023/09/07 08:08:00;;;;;;;78.78;74.85;;;;;;;;;;5033895;28;20049;-63
2023/09/07 08:10:26;;;;;;;99.63;94.70;;;;;;;;;;5033065;28;20504;-63
2023/09/07 08:12:54;;;;;;;96.20;91.32;;;;;;;;;;5038416;28;20029;-63
2023/09/07 08:15:21;;;;;;;122.28;116.28;;;;;;;;;;5036262;28;20175;-63
2023/09/07 08:17:47;;;;;;;120.72;114.78;;;;;;;;;;5037689;28;20131;-68
2023/09/07 08:20:13;;;;;;;108.65;103.32;;;;;;;;;;5037980;28;20036;-68
2023/09/07 08:22:41;;;;;;;92.15;87.55;;;;;;;;;;5036510;28;20033;-63
2023/09/07 08:25:08;;;;;;;74.05;70.15;;;;;;;;;;5034773;28;20092;-62
2023/09/07 08:27:33;;;;;;;47.67;45.20;;;;;;;;;;5034006;28;20065;-69
2023/09/07 08:29:59;;;;;;;56.90;54.00;;;;;;;;;;5034928;28;20119;-64
2023/09/07 08:32:24;;;;;;;45.05;42.70;;;;;;;;;;5034035;28;20029;-64
2023/09/07 08:34:50;;;;;;;55.65;52.50;;;;;;;;;;5038494;28;20049;-64
2023/09/07 08:37:16;;;;;;;49.03;46.33;;;;;;;;;;5040747;28;20049;-62
2023/09/07 08:39:41;;;;;;;49.00;46.42;;;;;;;;;;5036725;28;20379;-62
2023/09/07 08:42:07;;;;;;;49.85;47.30;;;;;;;;;;5041726;28;20104;-68
2023/09/07 08:44:33;;;;;;;70.05;66.53;;;;;;;;;;5041059;28;20049;-62
2023/09/07 08:47:02;;;;;;;82.47;78.18;;;;;;;;;;5039092;28;20083;-67
2023/09/07 08:49:28;;;;;;;152.80;145.27;;;;;;;;;;5040860;28;20036;-62
2023/09/07 08:51:54;;;;;;;135.02;128.27;;;;;;;;;;5052775;28;20045;-68
2023/09/07 08:54:20;;;;;;;126.28;120.05;;;;;;;;;;5035287;28;20041;-62
2023/09/07 08:56:46;;;;;;;157.88;150.10;;;;;;;;;;5039992;28;20100;-68
2023/09/07 08:59:12;;;;;;;160.48;152.57;;;;;;;;;;5039159;28;20078;-68
2023/09/07 09:01:37;;;;;;;107.32;102.03;;;;;;;;;;5039564;28;20029;-62
2023/09/07 09:04:03;;;;;;;171.90;163.48;;;;;;;;;;5041892;28;20037;-68
2023/09/07 09:06:29;;;;;;;173.55;165.02;;;;;;;;;;5027866;28;20029;-62
2023/09/07 09:08:57;;;;;;;225.05;214.13;;;;;;;;;;5039973;28;20033;-62
2023/09/07 09:11:24;;;;;;;251.43;239.20;;;;;;;;;;5039726;28;20568;-62
2023/09/07 09:13:53;;;;;;;269.48;256.33;;;;;;;;;;5026183;28;20041;-62
2023/09/07 09:16:19;;;;;;;279.42;265.67;;;;;;;;;;5037580;28;20368;-62
2023/09/07 09:18:52;;;;;;;307.30;291.98;;;;;;;;;;5041637;28;20099;-68
2023/09/07 09:21:20;;;;;;;268.05;254.85;;;;;;;;;;5040598;28;20048;-68
2023/09/07 09:23:47;;;;;;;268.58;255.35;;;;;;;;;;5040889;28;20100;-62
2023/09/07 09:26:13;;;;;;;283.50;269.52;;;;;;;;;;5040560;28;20124;-68
2023/09/07 09:28:38;;;;;;;318.98;303.30;;;;;;;;;;5037196;28;20124;-69
2023/09/07 09:31:04;;;;;;;286.92;272.67;;;;;;;;;;5035706;28;20372;-62
2023/09/07 09:33:35;;;;;;;316.42;300.73;;;;;;;;;;5040345;28;20528;-61
2023/09/07 09:36:02;;;;;;;268.83;255.68;;;;;;;;;;5036984;28;20051;-62
2023/09/07 09:38:28;;;;;;;255.75;243.23;;;;;;;;;;5038142;28;20107;-62
2023/09/07 09:40:55;;;;;;;288.35;274.05;;;;;;;;;;5039765;28;20037;-62
2023/09/07 09:43:21;;;;;;;222.10;211.23;;;;;;;;;;5038591;28;20757;-62
2023/09/07 09:45:46;;;;;;;251.50;239.23;;;;;;;;;;5038518;28;20051;-68
2023/09/07 09:48:13;;;;;;;213.02;202.70;;;;;;;;;;5041552;28;20025;-69
2023/09/07 09:50:40;;;;;;;222.95;212.15;;;;;;;;;;5023632;28;20499;-62
2023/09/07 09:53:09;;;;;;;220.77;210.02;;;;;;;;;;5040086;28;20044;-63
2023/09/07 09:55:35;;;;;;;212.60;202.30;;;;;;;;;;5038517;28;20029;-69
2023/09/07 09:58:00;;;;;;;225.82;214.88;;;;;;;;;;5037584;28;20471;-70
2023/09/07 10:00:28;;;;;;;213.23;202.88;;;;;;;;;;5040150;28;20154;-62
2023/09/07 10:03:15;;;;;;;209.43;199.18;;;;;;;;;;5022070;28;20410;-62
2023/09/07 10:05:43;;;;;;;202.05;192.25;;;;;;;;;;5021768;28;20056;-68
2023/09/07 10:08:13;;;;;;;198.43;188.75;;;;;;;;;;5038856;28;20155;-62
2023/09/07 10:10:38;;;;;;;201.73;191.90;;;;;;;;;;5038995;28;20033;-62
2023/09/07 10:13:05;;;;;;;200.15;190.40;;;;;;;;;;5037186;28;20279;-70
2023/09/07 10:15:32;;;;;;;110.13;104.70;;;;;;;;;;5037817;28;20052;-70
2023/09/07 10:18:15;;;;;;;176.73;168.10;;;;;;;;;;5038064;28;20029;-62
2023/09/07 10:20:48;;;;;;;164.73;156.63;;;;;;;;;;5041131;28;20025;-71
2023/09/07 10:23:14;;;;;;;200.90;191.15;;;;;;;;;;5039871;28;20099;-62
2023/09/07 10:25:39;;;;;;;197.95;188.20;;;;;;;;;;5025870;28;20037;-69
2023/09/07 10:28:05;;;;;;;94.78;90.10;;;;;;;;;;5037511;28;20028;-61
2023/09/07 10:30:32;;;;;;;40.40;38.33;;;;;;;;;;5034071;28;20072;-69
2023/09/07 10:32:58;;;;;;;36.13;34.22;;;;;;;;;;5029483;28;20586;-70
2023/09/07 10:35:25;;;;;;;59.58;56.60;;;;;;;;;;5039239;28;20206;-70
2023/09/07 10:37:51;;;;;;;75.85;71.90;;;;;;;;;;5039793;28;20037;-69
2023/09/07 10:40:21;;;;;;;78.28;73.97;;;;;;;;;;5036890;28;20037;-62
2023/09/07 10:42:46;;;;;;;78.18;74.28;;;;;;;;;;5022667;28;20463;-62
2023/09/07 10:45:15;;;;;;;41.45;39.33;;;;;;;;;;5039502;28;20041;-70
2023/09/07 10:47:45;;;;;;;49.97;47.42;;;;;;;;;;5035948;28;20037;-60
2023/09/07 10:50:14;;;;;;;136.80;130.05;;;;;;;;;;5038506;28;20025;-61
2023/09/07 10:52:43;;;;;;;88.18;83.78;;;;;;;;;;5037433;28;20099;-61
2023/09/07 10:55:11;;;;;;;31.10;29.40;;;;;;;;;;5039922;28;20051;-70
2023/09/07 10:57:47;;;;;;;29.10;27.55;;;;;;;;;;5036153;28;20060;-69
2023/09/07 11:00:13;;;;;;;39.63;37.58;;;;;;;;;;5032715;28;20037;-70
2023/09/07 11:02:40;;;;;;;38.35;36.35;;;;;;;;;;5037977;28;20044;-69
2023/09/07 11:05:06;;;;;;;32.13;30.45;;;;;;;;;;5039514;28;20040;-61
2023/09/07 11:07:32;;;;;;;85.70;81.43;;;;;;;;;;5025152;28;20531;-61
2023/09/07 11:09:58;;;;;;;38.15;36.13;;;;;;;;;;5033708;28;20391;-62
2023/09/07 11:12:23;;;;;;;26.45;25.05;;;;;;;;;;5041091;28;20094;-61
2023/09/07 11:14:52;;;;;;;27.27;25.73;;;;;;;;;;5038867;28;20048;-61
2023/09/07 11:17:17;;;;;;;25.35;23.95;;;;;;;;;;5021624;28;20033;-61
2023/09/07 11:19:43;;;;;;;26.55;25.15;;;;;;;;;;5036366;28;20430;-61
2023/09/07 11:22:12;;;;;;;25.27;23.98;;;;;;;;;;5036184;28;20112;-62
2023/09/07 11:24:37;;;;;;;24.10;22.70;;;;;;;;;;5037771;28;20759;-61
2023/09/07 11:27:03;;;;;;;26.40;24.83;;;;;;;;;;5038093;28;20040;-61
2023/09/07 11:29:31;;;;;;;29.63;28.00;;;;;;;;;;5041165;28;20048;-69
2023/09/07 11:32:07;;;;;;;24.73;23.40;;;;;;;;;;5036398;28;20040;-69
2023/09/07 11:34:32;;;;;;;26.58;25.08;;;;;;;;;;5037556;28;20094;-69
2023/09/07 11:36:58;;;;;;;30.20;28.60;;;;;;;;;;5038121;28;20041;-69
2023/09/07 11:39:23;;;;;;;29.05;27.55;;;;;;;;;;5036694;28;20025;-69
2023/09/07 11:41:48;;;;;;;29.85;28.27;;;;;;;;;;5036275;28;20418;-62
2023/09/07 11:44:14;;;;;;;27.42;25.92;;;;;;;;;;5035069;28;20523;-69
2023/09/07 11:46:39;;;;;;;29.20;27.67;;;;;;;;;;5032622;28;20041;-68
2023/09/07 11:49:05;;;;;;;36.72;34.83;;;;;;;;;;5035657;28;20048;-62
2023/09/07 11:51:31;;;;;;;34.58;32.78;;;;;;;;;;5036030;28;20472;-61
2023/09/07 11:53:57;;;;;;;30.08;28.40;;;;;;;;;;5040825;28;20089;-61
2023/09/07 11:56:22;;;;;;;41.20;39.10;;;;;;;;;;5020248;28;20073;-69
2023/09/07 11:58:48;;;;;;;37.83;35.83;;;;;;;;;;5049884;28;20037;-61
2023/09/07 12:01:16;;;;;;;32.42;30.73;;;;;;;;;;5039511;28;20043;-69
2023/09/07 12:03:45;;;;;;;33.70;31.90;;;;;;;;;;5038216;28;20044;-70
2023/09/07 12:06:11;;;;;;;50.10;47.58;;;;;;;;;;5038706;28;20107;-61
2023/09/07 12:08:36;;;;;;;38.22;36.22;;;;;;;;;;5020081;28;20045;-61
2023/09/07 12:11:02;;;;;;;51.05;48.45;;;;;;;;;;5037527;28;20044;-61
2023/09/07 12:13:27;;;;;;;43.35;41.15;;;;;;;;;;5039273;28;20118;-61
2023/09/07 12:15:53;;;;;;;61.58;58.38;;;;;;;;;;5042102;28;20491;-69
2023/09/07 12:18:18;;;;;;;45.60;43.30;;;;;;;;;;5042842;28;20479;-61
2023/09/07 12:20:44;;;;;;;59.47;56.47;;;;;;;;;;5042746;28;20060;-61
2023/09/07 12:23:10;;;;;;;61.70;58.53;;;;;;;;;;5039432;28;20037;-69
2023/09/07 12:25:36;;;;;;;53.17;50.45;;;;;;;;;;5028813;28;20159;-69
2023/09/07 12:28:03;;;;;;;47.25;44.85;;;;;;;;;;5039094;28;20029;-62
2023/09/07 12:30:28;;;;;;;61.70;58.60;;;;;;;;;;5041247;28;20037;-61
2023/09/07 12:32:54;;;;;;;82.32;78.22;;;;;;;;;;5042953;28;20032;-61
2023/09/07 12:35:20;;;;;;;80.38;76.40;;;;;;;;;;5038499;28;20052;-62
2023/09/07 12:37:46;;;;;;;80.07;76.00;;;;;;;;;;5041614;28;20334;-61
2023/09/07 12:40:14;;;;;;;86.35;82.10;;;;;;;;;;5055798;28;20040;-69
2023/09/07 12:42:43;;;;;;;103.22;98.13;;;;;;;;;;5043909;28;20083;-61
2023/09/07 12:45:10;;;;;;;99.68;94.72;;;;;;;;;;5040132;28;20060;-61
2023/09/07 12:47:36;;;;;;;103.45;98.32;;;;;;;;;;5039490;28;20127;-69
2023/09/07 12:50:02;;;;;;;121.70;115.68;;;;;;;;;;5041350;28;20127;-69
2023/09/07 12:52:28;;;;;;;130.30;123.80;;;;;;;;;;5038909;28;20095;-69
2023/09/07 12:54:53;;;;;;;126.30;120.03;;;;;;;;;;5040241;28;20721;-70
2023/09/07 12:57:19;;;;;;;106.05;100.82;;;;;;;;;;5041254;28;20033;-61
2023/09/07 12:59:44;;;;;;;104.55;99.43;;;;;;;;;;5041392;28;20115;-61
2023/09/07 13:02:09;;;;;;;89.07;84.65;;;;;;;;;;5028279;28;20076;-61
2023/09/07 13:04:35;;;;;;;96.18;90.82;;;;;;;;;;5040874;28;20068;-61
2023/09/07 13:07:01;;;;;;;104.43;99.30;;;;;;;;;;5039377;28;20037;-70
2023/09/07 13:09:26;;;;;;;114.32;108.65;;;;;;;;;;5041060;28;20099;-69
2023/09/07 13:11:52;;;;;;;128.23;121.88;;;;;;;;;;5041443;28;20033;-62
2023/09/07 13:14:17;;;;;;;119.10;113.25;;;;;;;;;;5044232;28;21086;-67
2023/09/07 13:16:43;;;;;;;94.65;89.90;;;;;;;;;;5026728;28;20542;-68
2023/09/07 13:19:08;;;;;;;103.07;98.00;;;;;;;;;;5041352;28;20099;-68
2023/09/07 13:21:33;;;;;;;89.03;84.65;;;;;;;;;;5025269;28;20033;-68
2023/09/07 13:23:59;;;;;;;110.05;104.57;;;;;;;;;;5055008;28;20132;-63
2023/09/07 13:26:24;;;;;;;108.00;102.63;;;;;;;;;;5039005;28;20056;-67
2023/09/07 13:28:49;;;;;;;103.70;98.57;;;;;;;;;;5041519;28;20068;-61
2023/09/07 13:31:15;;;;;;;110.07;104.63;;;;;;;;;;5039695;28;20064;-61
2023/09/07 13:33:40;;;;;;;113.72;108.07;;;;;;;;;;5038994;28;20112;-61
2023/09/07 13:36:06;;;;;;;114.85;109.10;;;;;;;;;;5023539;28;20641;-67
2023/09/07 13:38:32;;;;;;;124.47;118.30;;;;;;;;;;5039557;28;20029;-67
2023/09/07 13:40:57;;;;;;;124.53;118.35;;;;;;;;;;5041344;28;20074;-61
2023/09/07 13:43:22;;;;;;;135.15;128.50;;;;;;;;;;5040370;28;20490;-60
2023/09/07 13:45:48;;;;;;;113.90;108.25;;;;;;;;;;5040668;28;20096;-62
2023/09/07 13:48:13;;;;;;;88.88;84.47;;;;;;;;;;5038486;28;20036;-71
2023/09/07 13:50:39;;;;;;;112.10;106.53;;;;;;;;;;5039856;28;20040;-69
2023/09/07 13:53:04;;;;;;;128.07;121.75;;;;;;;;;;5040022;28;20033;-62
2023/09/07 13:55:30;;;;;;;119.72;113.80;;;;;;;;;;5055953;28;20033;-66
2023/09/07 13:57:55;;;;;;;108.43;103.05;;;;;;;;;;5039530;28;20052;-69
2023/09/07 14:00:20;;;;;;;121.93;115.88;;;;;;;;;;5054707;28;20032;-71
2023/09/07 14:02:46;;;;;;;125.85;119.60;;;;;;;;;;5039087;28;20034;-70
2023/09/07 14:05:11;;;;;;;128.23;121.88;;;;;;;;;;5038490;28;20032;-62